Boyang, China
Current Conditions -  °F | °C
As of 6:00 AM on Saturday 01 Nov 2014 (Local Time) from ZHHH Reporting Station
Haze Haze  
Wind Chill: 59°   Ceiling: Unl
Heat Index: 59°   Visibility: 0.93mi
Dew Point: 57°   Wind: 2mph
Humidity: 94%   Direction: 350°N
Pressure: 30.09"   Gusts: NA
Location:  28.98°N, 116.67°E
Report Text: ZHHH 312200Z 35001MPS 1500 BR NSC 15/14 Q1019 NOSIG
Loading
Personal Weather Stations






























Interactive Weather Map
Tropical Storm Tracking
New forecast layout! Learn more

10-Day Weather Forecast

Advertisements
Track Severe Weather on mobile